sensor_id;sensor_type;location;lat;lon;timestamp;P1;durP1;ratioP1;P2;durP2;ratioP2
42244;SDS011;27912;51.828;5.688;2023-03-01T00:00:26;7.75;;;3.53;;
42244;SDS011;27912;51.828;5.688;2023-03-01T00:02:52;7.15;;;3.60;;
42244;SDS011;27912;51.828;5.688;2023-03-01T00:05:17;6.93;;;3.35;;
42244;SDS011;27912;51.828;5.688;2023-03-01T00:07:43;5.80;;;3.03;;
42244;SDS011;27912;51.828;5.688;2023-03-01T00:10:08;5.88;;;3.08;;
42244;SDS011;27912;51.828;5.688;2023-03-01T00:12:35;6.50;;;3.00;;
42244;SDS011;27912;51.828;5.688;2023-03-01T00:15:01;5.45;;;2.95;;
42244;SDS011;27912;51.828;5.688;2023-03-01T00:17:27;6.18;;;3.50;;
42244;SDS011;27912;51.828;5.688;2023-03-01T00:19:53;7.95;;;3.45;;
42244;SDS011;27912;51.828;5.688;2023-03-01T00:22:19;8.13;;;2.90;;
42244;SDS011;27912;51.828;5.688;2023-03-01T00:24:44;7.32;;;2.95;;
42244;SDS011;27912;51.828;5.688;2023-03-01T00:27:10;9.10;;;3.70;;
42244;SDS011;27912;51.828;5.688;2023-03-01T00:29:35;7.10;;;3.28;;
42244;SDS011;27912;51.828;5.688;2023-03-01T00:32:01;7.15;;;3.53;;
42244;SDS011;27912;51.828;5.688;2023-03-01T00:34:26;7.93;;;3.40;;
42244;SDS011;27912;51.828;5.688;2023-03-01T00:36:52;8.25;;;4.00;;
42244;SDS011;27912;51.828;5.688;2023-03-01T00:39:17;6.60;;;4.05;;
42244;SDS011;27912;51.828;5.688;2023-03-01T00:41:43;6.28;;;2.83;;
42244;SDS011;27912;51.828;5.688;2023-03-01T00:44:09;7.72;;;3.55;;
42244;SDS011;27912;51.828;5.688;2023-03-01T00:46:35;7.18;;;3.15;;
42244;SDS011;27912;51.828;5.688;2023-03-01T00:49:00;6.25;;;3.90;;
42244;SDS011;27912;51.828;5.688;2023-03-01T00:51:29;7.90;;;3.55;;
42244;SDS011;27912;51.828;5.688;2023-03-01T00:53:56;9.23;;;4.30;;
42244;SDS011;27912;51.828;5.688;2023-03-01T00:56:23;5.53;;;3.30;;
42244;SDS011;27912;51.828;5.688;2023-03-01T00:58:49;6.05;;;3.50;;
42244;SDS011;27912;51.828;5.688;2023-03-01T01:01:16;7.15;;;3.60;;
42244;SDS011;27912;51.828;5.688;2023-03-01T01:03:48;6.22;;;3.63;;
42244;SDS011;27912;51.828;5.688;2023-03-01T01:06:19;7.30;;;3.58;;
42244;SDS011;27912;51.828;5.688;2023-03-01T01:08:46;5.88;;;3.08;;
42244;SDS011;27912;51.828;5.688;2023-03-01T01:11:12;6.55;;;3.28;;
42244;SDS011;27912;51.828;5.688;2023-03-01T01:13:38;8.68;;;3.60;;
42244;SDS011;27912;51.828;5.688;2023-03-01T01:16:05;6.65;;;3.55;;
42244;SDS011;27912;51.828;5.688;2023-03-01T01:18:30;6.60;;;3.38;;
42244;SDS011;27912;51.828;5.688;2023-03-01T01:20:56;6.22;;;3.63;;
42244;SDS011;27912;51.828;5.688;2023-03-01T01:23:23;7.18;;;3.75;;
42244;SDS011;27912;51.828;5.688;2023-03-01T01:25:48;7.35;;;3.40;;
42244;SDS011;27912;51.828;5.688;2023-03-01T01:28:14;5.93;;;2.83;;
42244;SDS011;27912;51.828;5.688;2023-03-01T01:30:39;7.68;;;3.35;;
42244;SDS011;27912;51.828;5.688;2023-03-01T01:33:05;6.40;;;3.38;;
42244;SDS011;27912;51.828;5.688;2023-03-01T01:35:30;7.57;;;3.45;;
42244;SDS011;27912;51.828;5.688;2023-03-01T01:37:56;7.05;;;3.65;;
42244;SDS011;27912;51.828;5.688;2023-03-01T01:40:21;6.10;;;3.17;;
42244;SDS011;27912;51.828;5.688;2023-03-01T01:42:47;6.85;;;3.25;;
42244;SDS011;27912;51.828;5.688;2023-03-01T01:45:32;4.63;;;3.10;;
42244;SDS011;27912;51.828;5.688;2023-03-01T01:48:03;7.03;;;3.42;;
42244;SDS011;27912;51.828;5.688;2023-03-01T01:50:32;7.32;;;4.03;;
42244;SDS011;27912;51.828;5.688;2023-03-01T01:53:04;6.95;;;3.25;;
42244;SDS011;27912;51.828;5.688;2023-03-01T01:55:31;9.30;;;3.42;;
42244;SDS011;27912;51.828;5.688;2023-03-01T01:57:58;6.55;;;3.35;;
42244;SDS011;27912;51.828;5.688;2023-03-01T02:03:03;6.82;;;3.22;;
42244;SDS011;27912;51.828;5.688;2023-03-01T02:08:25;8.05;;;3.00;;
42244;SDS011;27912;51.828;5.688;2023-03-01T02:10:53;7.43;;;3.47;;
42244;SDS011;27912;51.828;5.688;2023-03-01T02:13:20;7.90;;;4.22;;
42244;SDS011;27912;51.828;5.688;2023-03-01T02:15:46;9.13;;;3.90;;
42244;SDS011;27912;51.828;5.688;2023-03-01T02:18:12;9.05;;;3.90;;
42244;SDS011;27912;51.828;5.688;2023-03-01T02:20:51;7.53;;;3.97;;
42244;SDS011;27912;51.828;5.688;2023-03-01T02:23:29;7.20;;;4.00;;
42244;SDS011;27912;51.828;5.688;2023-03-01T02:28:32;6.82;;;3.33;;
42244;SDS011;27912;51.828;5.688;2023-03-01T02:31:03;6.15;;;3.05;;
42244;SDS011;27912;51.828;5.688;2023-03-01T02:33:49;8.07;;;4.15;;
42244;SDS011;27912;51.828;5.688;2023-03-01T02:36:20;8.50;;;4.40;;
42244;SDS011;27912;51.828;5.688;2023-03-01T02:38:50;8.32;;;3.92;;
42244;SDS011;27912;51.828;5.688;2023-03-01T02:41:18;10.10;;;4.07;;
42244;SDS011;27912;51.828;5.688;2023-03-01T02:43:45;7.53;;;3.75;;
42244;SDS011;27912;51.828;5.688;2023-03-01T02:46:15;7.60;;;4.10;;
42244;SDS011;27912;51.828;5.688;2023-03-01T02:54:16;8.25;;;4.38;;
42244;SDS011;27912;51.828;5.688;2023-03-01T02:56:59;8.80;;;3.88;;
42244;SDS011;27912;51.828;5.688;2023-03-01T02:59:28;8.52;;;4.05;;
42244;SDS011;27912;51.828;5.688;2023-03-01T03:01:58;6.72;;;3.95;;
42244;SDS011;27912;51.828;5.688;2023-03-01T03:04:25;7.35;;;4.07;;
42244;SDS011;27912;51.828;5.688;2023-03-01T03:06:51;9.57;;;4.25;;
42244;SDS011;27912;51.828;5.688;2023-03-01T03:09:17;8.73;;;4.15;;
42244;SDS011;27912;51.828;5.688;2023-03-01T03:11:43;7.80;;;4.13;;
42244;SDS011;27912;51.828;5.688;2023-03-01T03:14:12;7.43;;;4.63;;
42244;SDS011;27912;51.828;5.688;2023-03-01T03:16:41;8.30;;;4.63;;
42244;SDS011;27912;51.828;5.688;2023-03-01T03:19:07;7.97;;;4.25;;
42244;SDS011;27912;51.828;5.688;2023-03-01T03:21:33;5.32;;;3.33;;
42244;SDS011;27912;51.828;5.688;2023-03-01T03:23:59;7.85;;;3.65;;
42244;SDS011;27912;51.828;5.688;2023-03-01T03:26:25;10.52;;;5.00;;
42244;SDS011;27912;51.828;5.688;2023-03-01T03:28:50;10.25;;;4.43;;
42244;SDS011;27912;51.828;5.688;2023-03-01T03:31:16;8.20;;;3.85;;
42244;SDS011;27912;51.828;5.688;2023-03-01T03:33:42;6.35;;;3.67;;
42244;SDS011;27912;51.828;5.688;2023-03-01T03:36:08;7.93;;;4.13;;
42244;SDS011;27912;51.828;5.688;2023-03-01T03:38:38;10.02;;;5.03;;
42244;SDS011;27912;51.828;5.688;2023-03-01T03:41:05;7.88;;;4.78;;
42244;SDS011;27912;51.828;5.688;2023-03-01T03:43:33;7.75;;;4.32;;
42244;SDS011;27912;51.828;5.688;2023-03-01T03:46:00;9.45;;;4.32;;
42244;SDS011;27912;51.828;5.688;2023-03-01T03:48:30;6.30;;;4.13;;
42244;SDS011;27912;51.828;5.688;2023-03-01T03:50:58;7.63;;;4.40;;
42244;SDS011;27912;51.828;5.688;2023-03-01T03:53:24;8.52;;;4.72;;
42244;SDS011;27912;51.828;5.688;2023-03-01T03:55:52;11.10;;;4.00;;
42244;SDS011;27912;51.828;5.688;2023-03-01T03:58:19;11.20;;;4.57;;
42244;SDS011;27912;51.828;5.688;2023-03-01T04:00:46;6.95;;;4.25;;
42244;SDS011;27912;51.828;5.688;2023-03-01T04:03:14;8.60;;;4.05;;
42244;SDS011;27912;51.828;5.688;2023-03-01T04:05:41;11.07;;;4.93;;
42244;SDS011;27912;51.828;5.688;2023-03-01T04:08:07;9.70;;;4.50;;
42244;SDS011;27912;51.828;5.688;2023-03-01T04:10:37;11.05;;;4.85;;
42244;SDS011;27912;51.828;5.688;2023-03-01T04:13:05;9.32;;;4.43;;
42244;SDS011;27912;51.828;5.688;2023-03-01T04:15:32;8.82;;;4.60;;
42244;SDS011;27912;51.828;5.688;2023-03-01T04:17:58;9.82;;;4.57;;
42244;SDS011;27912;51.828;5.688;2023-03-01T04:20:26;11.55;;;5.15;;
42244;SDS011;27912;51.828;5.688;2023-03-01T04:25:52;10.15;;;5.30;;
42244;SDS011;27912;51.828;5.688;2023-03-01T04:28:30;11.30;;;4.47;;
42244;SDS011;27912;51.828;5.688;2023-03-01T04:31:05;8.30;;;4.50;;
42244;SDS011;27912;51.828;5.688;2023-03-01T04:33:39;8.85;;;5.00;;
42244;SDS011;27912;51.828;5.688;2023-03-01T04:36:06;12.50;;;5.30;;
42244;SDS011;27912;51.828;5.688;2023-03-01T04:38:33;10.73;;;4.95;;
42244;SDS011;27912;51.828;5.688;2023-03-01T04:41:02;9.60;;;5.43;;
42244;SDS011;27912;51.828;5.688;2023-03-01T04:43:28;11.40;;;5.53;;
42244;SDS011;27912;51.828;5.688;2023-03-01T04:45:54;8.55;;;5.68;;
42244;SDS011;27912;51.828;5.688;2023-03-01T04:48:19;11.88;;;5.10;;
42244;SDS011;27912;51.828;5.688;2023-03-01T04:50:45;11.45;;;6.10;;
42244;SDS011;27912;51.828;5.688;2023-03-01T04:53:10;10.95;;;5.63;;
42244;SDS011;27912;51.828;5.688;2023-03-01T04:55:36;11.18;;;5.45;;
42244;SDS011;27912;51.828;5.688;2023-03-01T04:58:01;12.85;;;5.38;;
42244;SDS011;27912;51.828;5.688;2023-03-01T05:00:27;10.75;;;5.53;;
42244;SDS011;27912;51.828;5.688;2023-03-01T05:02:53;10.35;;;4.55;;
42244;SDS011;27912;51.828;5.688;2023-03-01T05:07:55;8.70;;;4.70;;
42244;SDS011;27912;51.828;5.688;2023-03-01T05:10:21;9.05;;;5.03;;
42244;SDS011;27912;51.828;5.688;2023-03-01T05:12:48;13.07;;;4.95;;
42244;SDS011;27912;51.828;5.688;2023-03-01T05:15:13;10.38;;;4.90;;
42244;SDS011;27912;51.828;5.688;2023-03-01T05:17:39;12.75;;;5.55;;
42244;SDS011;27912;51.828;5.688;2023-03-01T05:20:05;11.20;;;4.80;;
42244;SDS011;27912;51.828;5.688;2023-03-01T05:22:33;11.23;;;5.72;;
42244;SDS011;27912;51.828;5.688;2023-03-01T05:25:00;8.02;;;4.38;;
42244;SDS011;27912;51.828;5.688;2023-03-01T05:27:26;12.30;;;5.70;;
42244;SDS011;27912;51.828;5.688;2023-03-01T05:29:51;11.48;;;4.53;;
42244;SDS011;27912;51.828;5.688;2023-03-01T05:32:17;8.88;;;4.22;;
42244;SDS011;27912;51.828;5.688;2023-03-01T05:34:42;7.78;;;4.53;;
42244;SDS011;27912;51.828;5.688;2023-03-01T05:37:09;9.02;;;4.63;;
42244;SDS011;27912;51.828;5.688;2023-03-01T05:39:34;10.38;;;4.63;;
42244;SDS011;27912;51.828;5.688;2023-03-01T05:42:01;10.07;;;4.78;;
42244;SDS011;27912;51.828;5.688;2023-03-01T05:44:27;12.85;;;5.18;;
42244;SDS011;27912;51.828;5.688;2023-03-01T05:46:53;10.35;;;5.68;;
42244;SDS011;27912;51.828;5.688;2023-03-01T05:49:19;8.43;;;4.97;;
42244;SDS011;27912;51.828;5.688;2023-03-01T05:51:49;10.90;;;4.57;;
42244;SDS011;27912;51.828;5.688;2023-03-01T05:54:15;16.27;;;6.82;;
42244;SDS011;27912;51.828;5.688;2023-03-01T05:56:41;7.10;;;4.28;;
42244;SDS011;27912;51.828;5.688;2023-03-01T05:59:07;14.73;;;5.07;;
42244;SDS011;27912;51.828;5.688;2023-03-01T06:01:33;9.27;;;4.45;;
42244;SDS011;27912;51.828;5.688;2023-03-01T06:03:59;14.77;;;5.38;;
42244;SDS011;27912;51.828;5.688;2023-03-01T06:06:25;10.40;;;4.85;;
42244;SDS011;27912;51.828;5.688;2023-03-01T06:08:51;9.02;;;4.88;;
42244;SDS011;27912;51.828;5.688;2023-03-01T06:11:17;9.65;;;4.65;;
42244;SDS011;27912;51.828;5.688;2023-03-01T06:13:43;9.98;;;5.03;;
42244;SDS011;27912;51.828;5.688;2023-03-01T06:16:10;10.25;;;5.18;;
42244;SDS011;27912;51.828;5.688;2023-03-01T06:18:36;11.10;;;4.65;;
42244;SDS011;27912;51.828;5.688;2023-03-01T06:21:02;9.38;;;4.72;;
42244;SDS011;27912;51.828;5.688;2023-03-01T06:23:28;10.98;;;5.13;;
42244;SDS011;27912;51.828;5.688;2023-03-01T06:25:53;13.27;;;5.07;;
42244;SDS011;27912;51.828;5.688;2023-03-01T06:28:19;8.73;;;4.80;;
42244;SDS011;27912;51.828;5.688;2023-03-01T06:30:44;13.45;;;5.75;;
42244;SDS011;27912;51.828;5.688;2023-03-01T06:33:10;11.32;;;6.30;;
42244;SDS011;27912;51.828;5.688;2023-03-01T06:35:36;12.07;;;5.65;;
42244;SDS011;27912;51.828;5.688;2023-03-01T06:38:02;9.23;;;4.75;;
42244;SDS011;27912;51.828;5.688;2023-03-01T06:40:29;10.02;;;5.07;;
42244;SDS011;27912;51.828;5.688;2023-03-01T06:42:56;11.70;;;5.70;;
42244;SDS011;27912;51.828;5.688;2023-03-01T06:45:22;8.93;;;4.80;;
42244;SDS011;27912;51.828;5.688;2023-03-01T06:47:49;13.75;;;4.82;;
42244;SDS011;27912;51.828;5.688;2023-03-01T06:50:15;9.55;;;4.78;;
42244;SDS011;27912;51.828;5.688;2023-03-01T06:52:41;11.75;;;5.20;;
42244;SDS011;27912;51.828;5.688;2023-03-01T06:55:08;11.48;;;5.32;;
42244;SDS011;27912;51.828;5.688;2023-03-01T06:57:34;7.90;;;4.47;;
42244;SDS011;27912;51.828;5.688;2023-03-01T06:59:59;12.07;;;4.45;;
42244;SDS011;27912;51.828;5.688;2023-03-01T07:02:25;12.75;;;4.50;;
42244;SDS011;27912;51.828;5.688;2023-03-01T07:04:51;12.05;;;4.53;;
42244;SDS011;27912;51.828;5.688;2023-03-01T07:07:17;9.30;;;5.57;;
42244;SDS011;27912;51.828;5.688;2023-03-01T07:09:44;7.80;;;4.63;;
42244;SDS011;27912;51.828;5.688;2023-03-01T07:12:10;8.27;;;4.38;;
42244;SDS011;27912;51.828;5.688;2023-03-01T07:14:36;8.80;;;4.32;;
42244;SDS011;27912;51.828;5.688;2023-03-01T07:17:01;9.18;;;5.22;;
42244;SDS011;27912;51.828;5.688;2023-03-01T07:19:27;7.50;;;4.70;;
42244;SDS011;27912;51.828;5.688;2023-03-01T07:21:53;10.25;;;4.25;;
42244;SDS011;27912;51.828;5.688;2023-03-01T07:24:20;9.85;;;4.63;;
42244;SDS011;27912;51.828;5.688;2023-03-01T07:26:49;11.73;;;6.35;;
42244;SDS011;27912;51.828;5.688;2023-03-01T07:29:15;10.40;;;4.50;;
42244;SDS011;27912;51.828;5.688;2023-03-01T07:31:41;10.05;;;4.85;;
42244;SDS011;27912;51.828;5.688;2023-03-01T07:34:06;9.18;;;4.95;;
42244;SDS011;27912;51.828;5.688;2023-03-01T07:36:32;12.25;;;5.32;;
42244;SDS011;27912;51.828;5.688;2023-03-01T07:38:57;11.50;;;5.45;;
42244;SDS011;27912;51.828;5.688;2023-03-01T07:41:23;12.63;;;5.88;;
42244;SDS011;27912;51.828;5.688;2023-03-01T07:43:48;12.57;;;5.68;;
42244;SDS011;27912;51.828;5.688;2023-03-01T07:46:14;9.05;;;4.93;;
42244;SDS011;27912;51.828;5.688;2023-03-01T07:48:40;12.65;;;5.50;;
42244;SDS011;27912;51.828;5.688;2023-03-01T07:51:06;12.05;;;5.75;;
42244;SDS011;27912;51.828;5.688;2023-03-01T07:53:32;18.45;;;5.78;;
42244;SDS011;27912;51.828;5.688;2023-03-01T07:56:08;13.73;;;5.15;;
42244;SDS011;27912;51.828;5.688;2023-03-01T07:58:36;10.00;;;4.78;;
42244;SDS011;27912;51.828;5.688;2023-03-01T08:01:03;14.82;;;5.38;;
42244;SDS011;27912;51.828;5.688;2023-03-01T08:03:33;10.27;;;4.65;;
42244;SDS011;27912;51.828;5.688;2023-03-01T08:06:00;10.18;;;5.38;;
42244;SDS011;27912;51.828;5.688;2023-03-01T08:08:26;13.80;;;5.20;;
42244;SDS011;27912;51.828;5.688;2023-03-01T08:10:52;12.85;;;5.65;;
42244;SDS011;27912;51.828;5.688;2023-03-01T08:13:20;15.15;;;5.43;;
42244;SDS011;27912;51.828;5.688;2023-03-01T08:15:48;13.85;;;6.32;;
42244;SDS011;27912;51.828;5.688;2023-03-01T08:18:14;12.45;;;5.65;;
42244;SDS011;27912;51.828;5.688;2023-03-01T08:20:42;13.48;;;4.65;;
42244;SDS011;27912;51.828;5.688;2023-03-01T08:23:08;13.70;;;5.75;;
42244;SDS011;27912;51.828;5.688;2023-03-01T08:25:33;13.05;;;5.85;;
42244;SDS011;27912;51.828;5.688;2023-03-01T08:27:59;11.90;;;5.85;;
42244;SDS011;27912;51.828;5.688;2023-03-01T08:30:24;16.13;;;5.88;;
42244;SDS011;27912;51.828;5.688;2023-03-01T08:32:50;12.57;;;5.45;;
42244;SDS011;27912;51.828;5.688;2023-03-01T08:35:16;12.48;;;6.10;;
42244;SDS011;27912;51.828;5.688;2023-03-01T08:37:42;15.35;;;6.00;;
42244;SDS011;27912;51.828;5.688;2023-03-01T08:40:08;14.52;;;5.72;;
42244;SDS011;27912;51.828;5.688;2023-03-01T08:42:35;14.35;;;5.88;;
42244;SDS011;27912;51.828;5.688;2023-03-01T08:45:01;10.82;;;5.35;;
42244;SDS011;27912;51.828;5.688;2023-03-01T08:47:30;13.85;;;5.18;;
42244;SDS011;27912;51.828;5.688;2023-03-01T08:49:56;11.25;;;4.82;;
42244;SDS011;27912;51.828;5.688;2023-03-01T08:52:21;15.88;;;5.70;;
42244;SDS011;27912;51.828;5.688;2023-03-01T08:54:47;11.60;;;5.68;;
42244;SDS011;27912;51.828;5.688;2023-03-01T08:57:13;10.88;;;5.75;;
42244;SDS011;27912;51.828;5.688;2023-03-01T08:59:39;10.48;;;6.18;;
42244;SDS011;27912;51.828;5.688;2023-03-01T09:02:06;9.52;;;5.53;;
42244;SDS011;27912;51.828;5.688;2023-03-01T09:04:40;10.77;;;5.38;;
42244;SDS011;27912;51.828;5.688;2023-03-01T09:07:06;8.10;;;5.05;;
42244;SDS011;27912;51.828;5.688;2023-03-01T09:09:33;8.95;;;5.05;;
42244;SDS011;27912;51.828;5.688;2023-03-01T09:11:58;10.65;;;4.85;;
42244;SDS011;27912;51.828;5.688;2023-03-01T09:14:24;8.85;;;5.03;;
42244;SDS011;27912;51.828;5.688;2023-03-01T09:16:50;8.95;;;4.38;;
42244;SDS011;27912;51.828;5.688;2023-03-01T09:19:15;10.23;;;5.55;;
42244;SDS011;27912;51.828;5.688;2023-03-01T09:21:41;9.73;;;5.15;;
42244;SDS011;27912;51.828;5.688;2023-03-01T09:24:16;10.02;;;5.03;;
42244;SDS011;27912;51.828;5.688;2023-03-01T09:26:43;10.27;;;4.80;;
42244;SDS011;27912;51.828;5.688;2023-03-01T09:29:11;11.23;;;4.90;;
42244;SDS011;27912;51.828;5.688;2023-03-01T09:31:37;8.75;;;4.20;;
42244;SDS011;27912;51.828;5.688;2023-03-01T09:34:02;11.82;;;4.72;;
42244;SDS011;27912;51.828;5.688;2023-03-01T09:36:28;10.13;;;4.07;;
42244;SDS011;27912;51.828;5.688;2023-03-01T09:38:54;9.43;;;4.25;;
42244;SDS011;27912;51.828;5.688;2023-03-01T09:44:18;9.27;;;4.25;;
42244;SDS011;27912;51.828;5.688;2023-03-01T09:46:50;9.75;;;5.45;;
42244;SDS011;27912;51.828;5.688;2023-03-01T09:49:18;9.80;;;4.57;;
42244;SDS011;27912;51.828;5.688;2023-03-01T09:51:54;6.95;;;4.10;;
42244;SDS011;27912;51.828;5.688;2023-03-01T09:54:20;10.05;;;4.72;;
42244;SDS011;27912;51.828;5.688;2023-03-01T09:56:49;9.48;;;3.95;;
42244;SDS011;27912;51.828;5.688;2023-03-01T09:59:38;8.02;;;4.20;;
42244;SDS011;27912;51.828;5.688;2023-03-01T10:05:21;7.40;;;5.05;;
42244;SDS011;27912;51.828;5.688;2023-03-01T10:07:55;8.07;;;4.22;;
42244;SDS011;27912;51.828;5.688;2023-03-01T10:10:46;11.18;;;4.97;;
42244;SDS011;27912;51.828;5.688;2023-03-01T10:15:56;8.38;;;3.70;;
42244;SDS011;27912;51.828;5.688;2023-03-01T10:18:35;5.07;;;3.15;;
42244;SDS011;27912;51.828;5.688;2023-03-01T10:21:07;9.38;;;4.20;;
42244;SDS011;27912;51.828;5.688;2023-03-01T10:23:39;6.80;;;3.58;;
42244;SDS011;27912;51.828;5.688;2023-03-01T10:29:05;8.82;;;3.95;;
42244;SDS011;27912;51.828;5.688;2023-03-01T10:31:49;6.45;;;3.20;;
42244;SDS011;27912;51.828;5.688;2023-03-01T10:34:21;10.00;;;3.63;;
42244;SDS011;27912;51.828;5.688;2023-03-01T10:36:52;6.13;;;2.72;;
42244;SDS011;27912;51.828;5.688;2023-03-01T10:39:23;8.10;;;3.78;;
42244;SDS011;27912;51.828;5.688;2023-03-01T10:47:04;6.65;;;3.70;;
42244;SDS011;27912;51.828;5.688;2023-03-01T10:49:30;8.93;;;3.88;;
42244;SDS011;27912;51.828;5.688;2023-03-01T10:51:56;7.22;;;4.03;;
42244;SDS011;27912;51.828;5.688;2023-03-01T10:54:43;6.05;;;3.25;;
42244;SDS011;27912;51.828;5.688;2023-03-01T10:57:31;9.27;;;4.60;;
42244;SDS011;27912;51.828;5.688;2023-03-01T11:00:18;5.82;;;3.38;;
42244;SDS011;27912;51.828;5.688;2023-03-01T11:02:49;11.43;;;4.28;;
42244;SDS011;27912;51.828;5.688;2023-03-01T11:05:26;8.35;;;4.57;;
42244;SDS011;27912;51.828;5.688;2023-03-01T11:07:56;7.38;;;4.30;;
42244;SDS011;27912;51.828;5.688;2023-03-01T11:10:26;6.22;;;3.60;;
42244;SDS011;27912;51.828;5.688;2023-03-01T11:16:03;6.68;;;3.85;;
42244;SDS011;27912;51.828;5.688;2023-03-01T11:18:32;9.88;;;4.00;;
42244;SDS011;27912;51.828;5.688;2023-03-01T11:20:58;5.65;;;3.90;;
42244;SDS011;27912;51.828;5.688;2023-03-01T11:23:27;6.47;;;4.10;;
42244;SDS011;27912;51.828;5.688;2023-03-01T11:25:56;11.50;;;3.92;;
42244;SDS011;27912;51.828;5.688;2023-03-01T11:28:24;6.70;;;3.40;;
42244;SDS011;27912;51.828;5.688;2023-03-01T11:31:00;8.18;;;3.92;;
42244;SDS011;27912;51.828;5.688;2023-03-01T11:33:50;7.43;;;4.03;;
42244;SDS011;27912;51.828;5.688;2023-03-01T11:39:17;7.25;;;3.08;;
42244;SDS011;27912;51.828;5.688;2023-03-01T11:41:48;5.97;;;2.93;;
42244;SDS011;27912;51.828;5.688;2023-03-01T11:44:19;6.65;;;3.72;;
42244;SDS011;27912;51.828;5.688;2023-03-01T11:49:43;6.07;;;3.17;;
42244;SDS011;27912;51.828;5.688;2023-03-01T11:52:20;8.75;;;3.70;;
42244;SDS011;27912;51.828;5.688;2023-03-01T12:08:28;6.20;;;3.15;;
42244;SDS011;27912;51.828;5.688;2023-03-01T12:11:15;6.75;;;3.17;;
42244;SDS011;27912;51.828;5.688;2023-03-01T12:30:26;5.25;;;2.70;;
42244;SDS011;27912;51.828;5.688;2023-03-01T12:36:26;6.43;;;3.47;;
42244;SDS011;27912;51.828;5.688;2023-03-01T12:45:24;6.75;;;3.38;;
42244;SDS011;27912;51.828;5.688;2023-03-01T12:51:08;7.78;;;3.67;;
42244;SDS011;27912;51.828;5.688;2023-03-01T12:53:40;7.78;;;3.40;;
42244;SDS011;27912;51.828;5.688;2023-03-01T12:56:10;7.38;;;4.13;;
42244;SDS011;27912;51.828;5.688;2023-03-01T12:58:40;7.40;;;3.78;;
42244;SDS011;27912;51.828;5.688;2023-03-01T13:04:47;6.25;;;3.10;;
42244;SDS011;27912;51.828;5.688;2023-03-01T13:07:36;5.80;;;2.95;;
42244;SDS011;27912;51.828;5.688;2023-03-01T13:10:26;7.35;;;3.00;;
42244;SDS011;27912;51.828;5.688;2023-03-01T13:13:20;6.00;;;2.80;;
42244;SDS011;27912;51.828;5.688;2023-03-01T13:15:48;5.70;;;2.50;;
42244;SDS011;27912;51.828;5.688;2023-03-01T13:23:12;4.78;;;3.00;;
42244;SDS011;27912;51.828;5.688;2023-03-01T13:31:01;7.03;;;2.72;;
42244;SDS011;27912;51.828;5.688;2023-03-01T13:35:53;8.88;;;3.22;;
42244;SDS011;27912;51.828;5.688;2023-03-01T13:41:06;6.88;;;3.08;;
42244;SDS011;27912;51.828;5.688;2023-03-01T13:43:33;4.85;;;2.95;;
42244;SDS011;27912;51.828;5.688;2023-03-01T13:46:02;7.45;;;3.50;;
42244;SDS011;27912;51.828;5.688;2023-03-01T13:48:40;5.95;;;3.58;;
42244;SDS011;27912;51.828;5.688;2023-03-01T13:51:08;5.20;;;2.97;;
42244;SDS011;27912;51.828;5.688;2023-03-01T13:53:37;6.43;;;3.05;;
42244;SDS011;27912;51.828;5.688;2023-03-01T13:56:17;4.30;;;2.80;;
42244;SDS011;27912;51.828;5.688;2023-03-01T13:58:59;5.55;;;2.72;;
42244;SDS011;27912;51.828;5.688;2023-03-01T14:01:30;6.13;;;2.97;;
42244;SDS011;27912;51.828;5.688;2023-03-01T14:04:00;5.03;;;3.05;;
42244;SDS011;27912;51.828;5.688;2023-03-01T14:06:28;5.28;;;2.92;;
42244;SDS011;27912;51.828;5.688;2023-03-01T14:14:24;6.78;;;3.40;;
42244;SDS011;27912;51.828;5.688;2023-03-01T14:19:35;6.68;;;2.85;;
42244;SDS011;27912;51.828;5.688;2023-03-01T14:22:07;5.70;;;3.10;;
42244;SDS011;27912;51.828;5.688;2023-03-01T14:24:49;6.55;;;3.28;;
42244;SDS011;27912;51.828;5.688;2023-03-01T14:27:26;5.57;;;3.45;;
42244;SDS011;27912;51.828;5.688;2023-03-01T14:30:03;5.57;;;3.13;;
42244;SDS011;27912;51.828;5.688;2023-03-01T14:32:37;7.20;;;3.10;;
42244;SDS011;27912;51.828;5.688;2023-03-01T14:35:03;7.30;;;3.17;;
42244;SDS011;27912;51.828;5.688;2023-03-01T14:37:43;5.57;;;2.67;;
42244;SDS011;27912;51.828;5.688;2023-03-01T14:40:19;6.93;;;3.08;;
42244;SDS011;27912;51.828;5.688;2023-03-01T14:42:50;7.88;;;3.05;;
42244;SDS011;27912;51.828;5.688;2023-03-01T14:45:16;7.10;;;3.05;;
42244;SDS011;27912;51.828;5.688;2023-03-01T14:47:43;7.10;;;3.33;;
42244;SDS011;27912;51.828;5.688;2023-03-01T14:52:50;4.93;;;3.10;;
42244;SDS011;27912;51.828;5.688;2023-03-01T14:55:19;6.82;;;2.72;;
42244;SDS011;27912;51.828;5.688;2023-03-01T14:57:54;5.22;;;2.80;;
42244;SDS011;27912;51.828;5.688;2023-03-01T15:00:23;5.43;;;3.15;;
42244;SDS011;27912;51.828;5.688;2023-03-01T15:02:54;6.70;;;2.90;;
42244;SDS011;27912;51.828;5.688;2023-03-01T15:05:32;4.88;;;2.92;;
42244;SDS011;27912;51.828;5.688;2023-03-01T15:07:59;7.07;;;3.33;;
42244;SDS011;27912;51.828;5.688;2023-03-01T15:10:27;6.43;;;2.72;;
42244;SDS011;27912;51.828;5.688;2023-03-01T15:12:56;9.80;;;3.53;;
42244;SDS011;27912;51.828;5.688;2023-03-01T15:15:35;7.30;;;3.22;;
42244;SDS011;27912;51.828;5.688;2023-03-01T15:20:39;6.53;;;3.30;;
42244;SDS011;27912;51.828;5.688;2023-03-01T15:23:05;5.80;;;3.10;;
42244;SDS011;27912;51.828;5.688;2023-03-01T15:25:31;6.95;;;3.10;;
42244;SDS011;27912;51.828;5.688;2023-03-01T15:27:58;5.88;;;3.30;;
42244;SDS011;27912;51.828;5.688;2023-03-01T15:35:47;6.53;;;2.97;;
42244;SDS011;27912;51.828;5.688;2023-03-01T15:40:57;5.88;;;3.60;;
42244;SDS011;27912;51.828;5.688;2023-03-01T15:43:37;5.63;;;2.70;;
42244;SDS011;27912;51.828;5.688;2023-03-01T15:48:58;6.28;;;2.80;;
42244;SDS011;27912;51.828;5.688;2023-03-01T15:51:32;6.78;;;3.40;;
42244;SDS011;27912;51.828;5.688;2023-03-01T15:54:01;8.68;;;3.20;;
42244;SDS011;27912;51.828;5.688;2023-03-01T15:56:30;6.10;;;3.72;;
42244;SDS011;27912;51.828;5.688;2023-03-01T15:58:59;6.65;;;3.08;;
42244;SDS011;27912;51.828;5.688;2023-03-01T16:01:27;5.93;;;3.38;;
42244;SDS011;27912;51.828;5.688;2023-03-01T16:03:52;5.65;;;3.47;;
42244;SDS011;27912;51.828;5.688;2023-03-01T16:06:19;4.45;;;3.00;;
42244;SDS011;27912;51.828;5.688;2023-03-01T16:08:44;7.47;;;3.70;;
42244;SDS011;27912;51.828;5.688;2023-03-01T16:11:13;8.23;;;3.30;;
42244;SDS011;27912;51.828;5.688;2023-03-01T16:13:41;8.38;;;3.53;;
42244;SDS011;27912;51.828;5.688;2023-03-01T16:16:07;4.70;;;3.15;;
42244;SDS011;27912;51.828;5.688;2023-03-01T16:18:37;5.22;;;3.35;;
42244;SDS011;27912;51.828;5.688;2023-03-01T16:21:03;8.40;;;3.13;;
42244;SDS011;27912;51.828;5.688;2023-03-01T16:23:30;5.72;;;3.33;;
42244;SDS011;27912;51.828;5.688;2023-03-01T16:25:58;6.70;;;2.67;;
42244;SDS011;27912;51.828;5.688;2023-03-01T16:28:24;4.53;;;2.60;;
42244;SDS011;27912;51.828;5.688;2023-03-01T16:30:51;6.65;;;3.17;;
42244;SDS011;27912;51.828;5.688;2023-03-01T16:33:17;6.95;;;3.95;;
42244;SDS011;27912;51.828;5.688;2023-03-01T16:35:42;4.40;;;2.50;;
42244;SDS011;27912;51.828;5.688;2023-03-01T16:38:09;7.15;;;2.78;;
42244;SDS011;27912;51.828;5.688;2023-03-01T16:40:35;6.82;;;3.00;;
42244;SDS011;27912;51.828;5.688;2023-03-01T16:43:00;6.22;;;2.83;;
42244;SDS011;27912;51.828;5.688;2023-03-01T16:45:35;5.68;;;3.33;;
42244;SDS011;27912;51.828;5.688;2023-03-01T16:48:01;5.47;;;2.35;;
42244;SDS011;27912;51.828;5.688;2023-03-01T16:50:28;6.90;;;2.58;;
42244;SDS011;27912;51.828;5.688;2023-03-01T16:52:53;4.30;;;2.10;;
42244;SDS011;27912;51.828;5.688;2023-03-01T16:55:19;15.75;;;3.30;;
42244;SDS011;27912;51.828;5.688;2023-03-01T16:57:44;5.13;;;2.50;;
42244;SDS011;27912;51.828;5.688;2023-03-01T17:00:10;7.32;;;2.92;;
42244;SDS011;27912;51.828;5.688;2023-03-01T17:02:38;8.13;;;2.70;;